sensor_id;sensor_type;location;lat;lon;timestamp;pressure;altitude;pressure_sealevel;temperature;humidity
30819;BME280;17546;42.674;23.284;2022-09-29T00:00:38;93862.88;;;24.59;42.76
30819;BME280;17546;42.674;23.284;2022-09-29T00:03:05;93870.13;;;24.62;42.84
30819;BME280;17546;42.674;23.284;2022-09-29T00:05:31;93873.34;;;24.57;42.48
30819;BME280;17546;42.674;23.284;2022-09-29T00:07:56;93861.03;;;24.64;42.63
30819;BME280;17546;42.674;23.284;2022-09-29T00:10:22;93866.19;;;24.56;42.78
30819;BME280;17546;42.674;23.284;2022-09-29T00:12:56;93866.56;;;24.62;42.81
30819;BME280;17546;42.674;23.284;2022-09-29T00:15:21;93871.78;;;24.44;42.97
30819;BME280;17546;42.674;23.284;2022-09-29T00:17:46;93853.16;;;24.29;43.46
30819;BME280;17546;42.674;23.284;2022-09-29T00:20:12;93858.50;;;24.46;43.09
30819;BME280;17546;42.674;23.284;2022-09-29T00:22:37;93858.78;;;24.50;43.07
30819;BME280;17546;42.674;23.284;2022-09-29T00:25:03;93863.34;;;24.56;42.83
30819;BME280;17546;42.674;23.284;2022-09-29T00:27:29;93866.19;;;24.56;42.79
30819;BME280;17546;42.674;23.284;2022-09-29T00:29:55;93865.94;;;24.51;43.13
30819;BME280;17546;42.674;23.284;2022-09-29T00:32:20;93843.22;;;24.28;42.91
30819;BME280;17546;42.674;23.284;2022-09-29T00:34:45;93862.44;;;24.41;43.42
30819;BME280;17546;42.674;23.284;2022-09-29T00:37:11;93858.28;;;23.87;44.14
30819;BME280;17546;42.674;23.284;2022-09-29T00:39:36;93850.91;;;24.16;43.39
30819;BME280;17546;42.674;23.284;2022-09-29T00:42:02;93861.19;;;24.32;43.48
30819;BME280;17546;42.674;23.284;2022-09-29T00:44:51;93867.06;;;24.25;43.48
30819;BME280;17546;42.674;23.284;2022-09-29T00:47:19;93850.47;;;23.98;43.59
30819;BME280;17546;42.674;23.284;2022-09-29T00:49:49;93854.34;;;24.14;43.36
30819;BME280;17546;42.674;23.284;2022-09-29T00:52:27;93856.97;;;24.22;43.49
30819;BME280;17546;42.674;23.284;2022-09-29T00:55:01;93865.78;;;24.16;43.17
30819;BME280;17546;42.674;23.284;2022-09-29T00:57:38;93859.56;;;23.96;43.92
30819;BME280;17546;42.674;23.284;2022-09-29T01:00:09;93851.28;;;24.10;43.23
30819;BME280;17546;42.674;23.284;2022-09-29T01:02:43;93856.94;;;24.10;43.40
30819;BME280;17546;42.674;23.284;2022-09-29T01:05:14;93857.31;;;24.16;43.45
30819;BME280;17546;42.674;23.284;2022-09-29T01:07:42;93854.22;;;24.12;43.89
30819;BME280;17546;42.674;23.284;2022-09-29T01:10:09;93848.09;;;24.16;43.64
30819;BME280;17546;42.674;23.284;2022-09-29T01:12:35;93843.38;;;24.08;43.72
30819;BME280;17546;42.674;23.284;2022-09-29T01:15:00;93847.91;;;24.02;43.89
30819;BME280;17546;42.674;23.284;2022-09-29T01:17:26;93856.25;;;24.00;43.86
30819;BME280;17546;42.674;23.284;2022-09-29T01:20:03;93860.78;;;23.93;44.16
30819;BME280;17546;42.674;23.284;2022-09-29T01:36:07;93852.13;;;23.79;44.18
30819;BME280;17546;42.674;23.284;2022-09-29T01:46:42;93860.09;;;23.61;44.57
30819;BME280;17546;42.674;23.284;2022-09-29T01:49:18;93870.19;;;23.64;44.60
30819;BME280;17546;42.674;23.284;2022-09-29T01:54:21;93866.91;;;23.15;45.34
30819;BME280;17546;42.674;23.284;2022-09-29T01:56:57;93876.38;;;23.51;44.96
30819;BME280;17546;42.674;23.284;2022-09-29T01:59:30;93863.19;;;23.44;45.01
30819;BME280;17546;42.674;23.284;2022-09-29T02:02:09;93863.94;;;23.44;44.85
30819;BME280;17546;42.674;23.284;2022-09-29T02:04:41;93861.56;;;23.41;45.22
30819;BME280;17546;42.674;23.284;2022-09-29T02:07:21;93869.31;;;23.40;45.12
30819;BME280;17546;42.674;23.284;2022-09-29T02:09:55;93866.34;;;23.38;44.93
30819;BME280;17546;42.674;23.284;2022-09-29T02:12:31;93861.41;;;23.39;45.35
30819;BME280;17546;42.674;23.284;2022-09-29T02:14:57;93861.41;;;23.39;45.27
30819;BME280;17546;42.674;23.284;2022-09-29T02:17:29;93873.72;;;23.22;45.43
30819;BME280;17546;42.674;23.284;2022-09-29T02:19:55;93885.47;;;23.18;45.21
30819;BME280;17546;42.674;23.284;2022-09-29T02:22:21;93872.66;;;23.27;45.59
30819;BME280;17546;42.674;23.284;2022-09-29T02:24:48;93875.53;;;23.39;45.05
30819;BME280;17546;42.674;23.284;2022-09-29T02:27:16;93882.28;;;23.34;45.57
30819;BME280;17546;42.674;23.284;2022-09-29T02:29:42;93879.06;;;22.77;46.55
30819;BME280;17546;42.674;23.284;2022-09-29T02:32:08;93882.28;;;23.02;45.72
30819;BME280;17546;42.674;23.284;2022-09-29T02:34:37;93889.00;;;23.28;45.20
30819;BME280;17546;42.674;23.284;2022-09-29T02:51:36;93878.66;;;23.12;45.68
30819;BME280;17546;42.674;23.284;2022-09-29T02:55:19;93890.56;;;23.10;45.80
30819;BME280;17546;42.674;23.284;2022-09-29T03:00:28;93856.53;;;23.08;45.43
30819;BME280;17546;42.674;23.284;2022-09-29T03:02:54;93827.16;;;22.92;45.88
30819;BME280;17546;42.674;23.284;2022-09-29T03:05:21;93837.44;;;22.87;46.13
30819;BME280;17546;42.674;23.284;2022-09-29T03:07:47;93831.88;;;22.99;45.53
30819;BME280;17546;42.674;23.284;2022-09-29T03:10:13;93833.91;;;22.77;45.89
30819;BME280;17546;42.674;23.284;2022-09-29T03:12:39;93834.75;;;22.89;45.47
30819;BME280;17546;42.674;23.284;2022-09-29T03:15:06;93838.63;;;22.84;45.40
30819;BME280;17546;42.674;23.284;2022-09-29T03:17:32;93857.28;;;22.99;45.33
30819;BME280;17546;42.674;23.284;2022-09-29T03:19:57;93853.56;;;23.06;45.12
30819;BME280;17546;42.674;23.284;2022-09-29T03:22:23;93870.78;;;23.10;45.01
30819;BME280;17546;42.674;23.284;2022-09-29T03:24:49;93872.00;;;23.07;45.17
30819;BME280;17546;42.674;23.284;2022-09-29T03:27:14;93873.19;;;23.04;44.96
30819;BME280;17546;42.674;23.284;2022-09-29T03:29:42;93888.94;;;22.97;45.40
30819;BME280;17546;42.674;23.284;2022-09-29T03:32:08;93871.41;;;22.99;45.37
30819;BME280;17546;42.674;23.284;2022-09-29T03:34:34;93887.28;;;23.14;45.13
30819;BME280;17546;42.674;23.284;2022-09-29T03:36:59;93904.97;;;23.14;44.82
30819;BME280;17546;42.674;23.284;2022-09-29T03:39:25;93905.38;;;23.20;44.98
30819;BME280;17546;42.674;23.284;2022-09-29T03:41:51;93907.00;;;23.23;44.90
30819;BME280;17546;42.674;23.284;2022-09-29T03:44:17;93912.56;;;23.12;45.16
30819;BME280;17546;42.674;23.284;2022-09-29T03:46:42;93927.56;;;23.14;44.83
30819;BME280;17546;42.674;23.284;2022-09-29T03:49:11;93914.97;;;22.96;45.49
30819;BME280;17546;42.674;23.284;2022-09-29T03:51:37;93895.78;;;23.04;45.02
30819;BME280;17546;42.674;23.284;2022-09-29T03:54:04;93898.88;;;23.08;45.06
30819;BME280;17546;42.674;23.284;2022-09-29T03:56:30;93895.16;;;23.15;44.99
30819;BME280;17546;42.674;23.284;2022-09-29T03:58:56;93896.34;;;23.12;45.02
30819;BME280;17546;42.674;23.284;2022-09-29T04:01:21;93892.19;;;23.13;45.11
30819;BME280;17546;42.674;23.284;2022-09-29T04:03:47;93887.00;;;23.09;44.90
30819;BME280;17546;42.674;23.284;2022-09-29T04:06:12;93893.88;;;23.06;45.09
30819;BME280;17546;42.674;23.284;2022-09-29T04:08:38;93888.41;;;22.89;45.42
30819;BME280;17546;42.674;23.284;2022-09-29T04:11:04;93899.66;;;22.99;45.17
30819;BME280;17546;42.674;23.284;2022-09-29T04:13:30;93894.34;;;22.93;45.13
30819;BME280;17546;42.674;23.284;2022-09-29T04:16:04;93905.88;;;22.97;45.40
30819;BME280;17546;42.674;23.284;2022-09-29T04:18:30;93889.56;;;22.96;45.44
30819;BME280;17546;42.674;23.284;2022-09-29T04:20:56;93895.53;;;23.00;45.20
30819;BME280;17546;42.674;23.284;2022-09-29T04:23:28;93887.06;;;22.90;45.22
30819;BME280;17546;42.674;23.284;2022-09-29T04:25:55;93893.72;;;22.95;45.22
30819;BME280;17546;42.674;23.284;2022-09-29T04:28:21;93893.19;;;22.77;45.93
30819;BME280;17546;42.674;23.284;2022-09-29T04:30:46;93876.25;;;22.77;45.54
30819;BME280;17546;42.674;23.284;2022-09-29T04:33:12;93891.91;;;22.58;46.31
30819;BME280;17546;42.674;23.284;2022-09-29T04:35:37;93899.94;;;22.13;47.18
30819;BME280;17546;42.674;23.284;2022-09-29T04:38:03;93893.00;;;22.24;47.06
30819;BME280;17546;42.674;23.284;2022-09-29T04:40:28;93883.78;;;22.43;46.37
30819;BME280;17546;42.674;23.284;2022-09-29T04:42:54;93875.94;;;22.32;46.77
30819;BME280;17546;42.674;23.284;2022-09-29T04:45:19;93873.50;;;22.47;46.26
30819;BME280;17546;42.674;23.284;2022-09-29T04:47:44;93874.28;;;22.38;46.57
30819;BME280;17546;42.674;23.284;2022-09-29T04:50:10;93891.50;;;22.42;46.76
30819;BME280;17546;42.674;23.284;2022-09-29T04:52:35;93881.81;;;22.55;46.29
30819;BME280;17546;42.674;23.284;2022-09-29T04:55:04;93897.72;;;22.51;46.51
30819;BME280;17546;42.674;23.284;2022-09-29T04:57:29;93888.69;;;22.33;46.80
30819;BME280;17546;42.674;23.284;2022-09-29T04:59:54;93864.50;;;22.00;47.41
30819;BME280;17546;42.674;23.284;2022-09-29T05:02:20;93871.47;;;22.28;46.97
30819;BME280;17546;42.674;23.284;2022-09-29T05:04:46;93878.72;;;22.41;46.76
30819;BME280;17546;42.674;23.284;2022-09-29T05:07:13;93880.66;;;22.39;46.78
30819;BME280;17546;42.674;23.284;2022-09-29T05:09:39;93887.63;;;22.47;46.81
30819;BME280;17546;42.674;23.284;2022-09-29T05:12:05;93906.63;;;22.47;46.61
30819;BME280;17546;42.674;23.284;2022-09-29T05:14:30;93877.72;;;22.27;47.21
30819;BME280;17546;42.674;23.284;2022-09-29T05:16:56;93875.59;;;22.47;46.95
30819;BME280;17546;42.674;23.284;2022-09-29T05:19:24;93890.41;;;22.57;46.67
30819;BME280;17546;42.674;23.284;2022-09-29T05:21:49;93897.09;;;22.62;46.25
30819;BME280;17546;42.674;23.284;2022-09-29T05:24:15;93896.34;;;22.61;46.72
30819;BME280;17546;42.674;23.284;2022-09-29T05:26:40;93893.22;;;22.67;46.44
30819;BME280;17546;42.674;23.284;2022-09-29T05:29:06;93890.84;;;22.73;46.06
30819;BME280;17546;42.674;23.284;2022-09-29T05:31:32;93893.03;;;22.84;46.49
30819;BME280;17546;42.674;23.284;2022-09-29T05:33:57;93899.38;;;22.95;45.74
30819;BME280;17546;42.674;23.284;2022-09-29T05:36:23;93892.97;;;22.94;45.83
30819;BME280;17546;42.674;23.284;2022-09-29T05:38:48;93903.38;;;23.01;45.88
30819;BME280;17546;42.674;23.284;2022-09-29T05:41:15;93907.22;;;23.06;45.86
30819;BME280;17546;42.674;23.284;2022-09-29T05:43:47;93908.78;;;22.78;46.16
30819;BME280;17546;42.674;23.284;2022-09-29T05:46:13;93914.00;;;22.62;46.50
30819;BME280;17546;42.674;23.284;2022-09-29T05:48:39;93911.97;;;22.53;46.55
30819;BME280;17546;42.674;23.284;2022-09-29T05:51:13;93928.28;;;22.64;46.84
30819;BME280;17546;42.674;23.284;2022-09-29T05:53:40;93916.25;;;22.63;46.74
30819;BME280;17546;42.674;23.284;2022-09-29T05:56:07;93915.06;;;22.66;46.50
30819;BME280;17546;42.674;23.284;2022-09-29T05:58:41;93918.97;;;22.93;46.54
30819;BME280;17546;42.674;23.284;2022-09-29T06:01:07;93922.56;;;23.03;45.97
30819;BME280;17546;42.674;23.284;2022-09-29T06:03:38;93917.75;;;23.15;45.90
30819;BME280;17546;42.674;23.284;2022-09-29T06:06:09;93935.75;;;23.10;45.65
30819;BME280;17546;42.674;23.284;2022-09-29T06:08:35;93935.28;;;22.63;46.39
30819;BME280;17546;42.674;23.284;2022-09-29T06:11:03;93932.44;;;22.63;46.83
30819;BME280;17546;42.674;23.284;2022-09-29T06:13:29;93924.91;;;22.97;45.79
30819;BME280;17546;42.674;23.284;2022-09-29T06:15:54;93932.78;;;23.08;45.67
30819;BME280;17546;42.674;23.284;2022-09-29T06:18:22;93923.41;;;23.15;45.55
30819;BME280;17546;42.674;23.284;2022-09-29T06:20:47;93914.97;;;23.37;45.43
30819;BME280;17546;42.674;23.284;2022-09-29T06:23:13;93924.28;;;23.49;45.40
30819;BME280;17546;42.674;23.284;2022-09-29T06:25:38;93914.44;;;23.28;45.39
30819;BME280;17546;42.674;23.284;2022-09-29T06:28:03;93921.53;;;23.39;44.63
30819;BME280;17546;42.674;23.284;2022-09-29T06:30:29;93929.28;;;23.60;44.66
30819;BME280;17546;42.674;23.284;2022-09-29T06:32:54;93928.47;;;23.69;44.74
30819;BME280;17546;42.674;23.284;2022-09-29T06:35:19;93936.19;;;23.79;44.42
30819;BME280;17546;42.674;23.284;2022-09-29T06:38:04;93931.97;;;23.58;44.28
30819;BME280;17546;42.674;23.284;2022-09-29T06:40:29;93943.47;;;23.82;43.58
30819;BME280;17546;42.674;23.284;2022-09-29T06:42:55;93934.78;;;23.89;43.58
30819;BME280;17546;42.674;23.284;2022-09-29T06:45:20;93945.94;;;23.56;44.07
30819;BME280;17546;42.674;23.284;2022-09-29T06:47:45;93942.84;;;23.83;43.21
30819;BME280;17546;42.674;23.284;2022-09-29T06:50:11;93939.31;;;23.73;43.12
30819;BME280;17546;42.674;23.284;2022-09-29T06:52:36;93935.03;;;23.93;43.07
30819;BME280;17546;42.674;23.284;2022-09-29T06:55:02;93948.91;;;24.11;43.53
30819;BME280;17546;42.674;23.284;2022-09-29T06:57:27;93957.22;;;23.97;43.16
30819;BME280;17546;42.674;23.284;2022-09-29T06:59:53;93954.25;;;23.95;43.22
30819;BME280;17546;42.674;23.284;2022-09-29T07:02:18;93968.44;;;24.28;42.66
30819;BME280;17546;42.674;23.284;2022-09-29T07:04:44;93964.31;;;24.41;42.15
30819;BME280;17546;42.674;23.284;2022-09-29T07:07:09;93969.03;;;24.05;42.28
30819;BME280;17546;42.674;23.284;2022-09-29T07:09:34;93972.19;;;24.43;42.10
30819;BME280;17546;42.674;23.284;2022-09-29T07:12:00;93960.69;;;24.50;42.39
30819;BME280;17546;42.674;23.284;2022-09-29T07:14:25;93959.72;;;24.58;42.24
30819;BME280;17546;42.674;23.284;2022-09-29T07:16:51;93958.56;;;24.72;42.15
30819;BME280;17546;42.674;23.284;2022-09-29T07:19:17;93955.63;;;24.82;42.44
30819;BME280;17546;42.674;23.284;2022-09-29T07:21:47;93954.59;;;24.66;41.62
30819;BME280;17546;42.674;23.284;2022-09-29T07:24:12;93942.88;;;24.38;41.95
30819;BME280;17546;42.674;23.284;2022-09-29T07:26:38;93952.28;;;23.98;42.31
30819;BME280;17546;42.674;23.284;2022-09-29T07:29:04;93945.16;;;23.97;42.76
30819;BME280;17546;42.674;23.284;2022-09-29T07:31:29;93939.88;;;24.24;42.01
30819;BME280;17546;42.674;23.284;2022-09-29T07:33:55;93951.59;;;24.52;41.89
30819;BME280;17546;42.674;23.284;2022-09-29T07:36:20;93955.13;;;24.74;41.63
30819;BME280;17546;42.674;23.284;2022-09-29T07:38:47;93967.00;;;24.94;41.62
30819;BME280;17546;42.674;23.284;2022-09-29T07:41:13;93952.38;;;24.43;42.42
30819;BME280;17546;42.674;23.284;2022-09-29T07:43:39;93934.03;;;23.89;42.96
30819;BME280;17546;42.674;23.284;2022-09-29T07:46:06;93949.13;;;24.03;42.25
30819;BME280;17546;42.674;23.284;2022-09-29T07:48:33;93953.72;;;24.42;42.04
30819;BME280;17546;42.674;23.284;2022-09-29T07:51:00;93962.03;;;24.83;41.50
30819;BME280;17546;42.674;23.284;2022-09-29T07:53:25;93974.16;;;24.62;41.61
30819;BME280;17546;42.674;23.284;2022-09-29T07:55:51;93986.84;;;25.06;40.97
30819;BME280;17546;42.674;23.284;2022-09-29T07:58:17;93987.22;;;25.12;41.31
30819;BME280;17546;42.674;23.284;2022-09-29T08:00:42;93979.44;;;25.01;40.99
30819;BME280;17546;42.674;23.284;2022-09-29T08:03:09;93970.22;;;24.67;40.93
30819;BME280;17546;42.674;23.284;2022-09-29T08:05:34;93987.41;;;24.92;40.83
30819;BME280;17546;42.674;23.284;2022-09-29T08:08:01;93989.94;;;25.10;40.65
30819;BME280;17546;42.674;23.284;2022-09-29T08:10:31;94005.50;;;25.32;40.63
30819;BME280;17546;42.674;23.284;2022-09-29T08:12:57;94009.97;;;25.35;40.07
30819;BME280;17546;42.674;23.284;2022-09-29T08:15:22;94009.47;;;25.51;40.12
30819;BME280;17546;42.674;23.284;2022-09-29T08:17:51;94008.13;;;25.52;39.91
30819;BME280;17546;42.674;23.284;2022-09-29T08:20:17;94012.56;;;25.55;39.87
30819;BME280;17546;42.674;23.284;2022-09-29T08:22:43;94009.25;;;25.70;40.45
30819;BME280;17546;42.674;23.284;2022-09-29T08:25:08;93998.75;;;25.85;40.96
30819;BME280;17546;42.674;23.284;2022-09-29T08:27:33;94003.59;;;25.94;40.88
30819;BME280;17546;42.674;23.284;2022-09-29T08:29:59;94005.03;;;25.60;39.87
30819;BME280;17546;42.674;23.284;2022-09-29T08:32:24;94006.03;;;25.41;39.56
30819;BME280;17546;42.674;23.284;2022-09-29T08:34:50;94002.59;;;25.54;39.73
30819;BME280;17546;42.674;23.284;2022-09-29T08:37:15;94005.44;;;25.09;40.64
30819;BME280;17546;42.674;23.284;2022-09-29T08:39:42;93992.75;;;25.10;40.55
30819;BME280;17546;42.674;23.284;2022-09-29T08:45:01;94001.47;;;25.59;39.48
30819;BME280;17546;42.674;23.284;2022-09-29T08:47:33;93995.94;;;25.49;39.94
30819;BME280;17546;42.674;23.284;2022-09-29T08:50:05;93996.03;;;25.75;39.31
30819;BME280;17546;42.674;23.284;2022-09-29T08:52:39;93991.72;;;26.09;38.88
30819;BME280;17546;42.674;23.284;2022-09-29T08:57:37;94001.88;;;26.50;39.24
30819;BME280;17546;42.674;23.284;2022-09-29T09:00:05;93997.31;;;26.56;38.67
30819;BME280;17546;42.674;23.284;2022-09-29T09:09:02;93995.28;;;26.71;37.53
30819;BME280;17546;42.674;23.284;2022-09-29T09:25:34;93993.22;;;25.87;37.03
30819;BME280;17546;42.674;23.284;2022-09-29T09:28:20;93981.84;;;26.10;36.19
30819;BME280;17546;42.674;23.284;2022-09-29T09:30:55;93983.72;;;26.06;35.54
30819;BME280;17546;42.674;23.284;2022-09-29T09:38:58;93983.56;;;26.65;35.56
30819;BME280;17546;42.674;23.284;2022-09-29T09:41:27;93977.34;;;27.06;35.14
30819;BME280;17546;42.674;23.284;2022-09-29T09:44:02;93978.09;;;27.59;35.29
30819;BME280;17546;42.674;23.284;2022-09-29T09:49:19;93994.53;;;27.47;36.05
30819;BME280;17546;42.674;23.284;2022-09-29T09:52:03;93998.53;;;27.56;35.63
30819;BME280;17546;42.674;23.284;2022-09-29T09:54:40;93974.69;;;27.35;33.28
30819;BME280;17546;42.674;23.284;2022-09-29T09:57:29;93980.59;;;27.39;32.65
30819;BME280;17546;42.674;23.284;2022-09-29T10:02:34;93978.88;;;27.74;32.88
30819;BME280;17546;42.674;23.284;2022-09-29T10:05:00;93978.78;;;27.86;33.41
30819;BME280;17546;42.674;23.284;2022-09-29T10:07:27;93977.72;;;27.79;31.60
30819;BME280;17546;42.674;23.284;2022-09-29T10:09:55;93987.38;;;28.43;31.26
30819;BME280;17546;42.674;23.284;2022-09-29T10:12:23;93986.09;;;28.46;31.34
30819;BME280;17546;42.674;23.284;2022-09-29T10:14:58;93969.81;;;28.19;30.24
30819;BME280;17546;42.674;23.284;2022-09-29T10:17:30;93967.16;;;28.23;30.56
30819;BME280;17546;42.674;23.284;2022-09-29T10:19:59;93965.09;;;27.96;31.54
30819;BME280;17546;42.674;23.284;2022-09-29T10:22:27;93970.16;;;28.11;32.07
30819;BME280;17546;42.674;23.284;2022-09-29T10:27:40;93992.84;;;27.56;32.93
30819;BME280;17546;42.674;23.284;2022-09-29T10:30:22;93990.81;;;28.12;32.14
30819;BME280;17546;42.674;23.284;2022-09-29T10:32:51;93990.91;;;28.00;32.29
30819;BME280;17546;42.674;23.284;2022-09-29T10:35:38;93989.84;;;27.93;32.16
30819;BME280;17546;42.674;23.284;2022-09-29T10:38:07;93985.09;;;28.26;32.72
30819;BME280;17546;42.674;23.284;2022-09-29T10:41:03;93983.47;;;28.64;31.13
30819;BME280;17546;42.674;23.284;2022-09-29T10:43:38;93981.06;;;28.44;29.83
30819;BME280;17546;42.674;23.284;2022-09-29T10:46:08;93980.25;;;29.01;30.66
30819;BME280;17546;42.674;23.284;2022-09-29T10:49:16;93989.41;;;29.75;29.39
30819;BME280;17546;42.674;23.284;2022-09-29T10:51:59;93988.94;;;29.97;28.83
30819;BME280;17546;42.674;23.284;2022-09-29T10:54:29;93977.94;;;30.23;27.91
30819;BME280;17546;42.674;23.284;2022-09-29T10:56:56;93973.41;;;30.34;27.50
30819;BME280;17546;42.674;23.284;2022-09-29T10:59:23;93977.75;;;30.35;28.54
30819;BME280;17546;42.674;23.284;2022-09-29T11:01:53;93973.16;;;30.27;27.65
30819;BME280;17546;42.674;23.284;2022-09-29T11:04:28;93979.69;;;30.30;27.27
30819;BME280;17546;42.674;23.284;2022-09-29T11:06:56;93974.09;;;30.50;27.33
30819;BME280;17546;42.674;23.284;2022-09-29T11:09:36;93976.66;;;30.60;27.47
30819;BME280;17546;42.674;23.284;2022-09-29T11:12:03;93975.19;;;30.77;26.48
30819;BME280;17546;42.674;23.284;2022-09-29T11:17:21;93957.84;;;30.37;27.59
30819;BME280;17546;42.674;23.284;2022-09-29T11:19:48;93962.88;;;31.26;26.79
30819;BME280;17546;42.674;23.284;2022-09-29T11:33:52;93962.03;;;31.41;26.30
30819;BME280;17546;42.674;23.284;2022-09-29T11:36:33;93958.38;;;31.21;26.54
30819;BME280;17546;42.674;23.284;2022-09-29T11:44:58;93958.78;;;30.77;27.25
30819;BME280;17546;42.674;23.284;2022-09-29T11:50:25;93967.22;;;31.27;26.86
30819;BME280;17546;42.674;23.284;2022-09-29T11:57:49;93966.56;;;31.10;27.22
30819;BME280;17546;42.674;23.284;2022-09-29T12:00:24;93966.63;;;30.59;27.39
30819;BME280;17546;42.674;23.284;2022-09-29T12:07:59;93955.16;;;30.25;27.22
30819;BME280;17546;42.674;23.284;2022-09-29T12:10:49;93952.53;;;30.13;27.63
30819;BME280;17546;42.674;23.284;2022-09-29T12:16:16;93958.78;;;30.25;27.46
30819;BME280;17546;42.674;23.284;2022-09-29T12:18:49;93954.75;;;30.15;27.86
30819;BME280;17546;42.674;23.284;2022-09-29T12:21:41;93962.41;;;30.10;27.59
30819;BME280;17546;42.674;23.284;2022-09-29T12:24:14;93948.28;;;30.30;27.58
30819;BME280;17546;42.674;23.284;2022-09-29T12:26:42;93957.88;;;30.21;27.69
30819;BME280;17546;42.674;23.284;2022-09-29T12:29:31;93958.78;;;30.77;27.35
30819;BME280;17546;42.674;23.284;2022-09-29T12:31:59;93967.44;;;30.61;27.42
30819;BME280;17546;42.674;23.284;2022-09-29T12:34:47;93954.28;;;30.54;27.26
30819;BME280;17546;42.674;23.284;2022-09-29T12:37:30;93955.78;;;30.91;27.25
30819;BME280;17546;42.674;23.284;2022-09-29T12:51:00;93965.88;;;30.58;27.13
30819;BME280;17546;42.674;23.284;2022-09-29T12:53:34;93962.28;;;30.76;27.01
30819;BME280;17546;42.674;23.284;2022-09-29T12:56:09;93949.00;;;30.31;27.06
30819;BME280;17546;42.674;23.284;2022-09-29T12:58:59;93960.22;;;30.26;27.13
30819;BME280;17546;42.674;23.284;2022-09-29T13:01:31;93962.25;;;30.40;26.74
30819;BME280;17546;42.674;23.284;2022-09-29T13:07:40;93964.91;;;30.69;27.18
30819;BME280;17546;42.674;23.284;2022-09-29T13:28:53;93956.25;;;30.67;27.32
30819;BME280;17546;42.674;23.284;2022-09-29T13:31:24;93954.69;;;30.64;27.35
30819;BME280;17546;42.674;23.284;2022-09-29T13:33:53;93953.94;;;30.46;27.59
30819;BME280;17546;42.674;23.284;2022-09-29T13:36:31;93957.63;;;30.66;27.01
30819;BME280;17546;42.674;23.284;2022-09-29T13:39:03;93965.78;;;30.38;27.55
30819;BME280;17546;42.674;23.284;2022-09-29T13:54:29;93973.19;;;29.02;30.19
30819;BME280;17546;42.674;23.284;2022-09-29T13:57:17;93971.81;;;29.33;29.90
30819;BME280;17546;42.674;23.284;2022-09-29T14:08:06;93969.94;;;27.93;31.95
30819;BME280;17546;42.674;23.284;2022-09-29T14:13:11;93968.25;;;28.02;31.97
30819;BME280;17546;42.674;23.284;2022-09-29T14:21:00;93980.25;;;27.87;32.07
30819;BME280;17546;42.674;23.284;2022-09-29T14:23:58;93983.75;;;27.99;32.14
30819;BME280;17546;42.674;23.284;2022-09-29T14:26:48;93994.91;;;27.95;32.16
30819;BME280;17546;42.674;23.284;2022-09-29T14:29:23;93998.28;;;28.19;31.63
30819;BME280;17546;42.674;23.284;2022-09-29T14:31:52;94011.25;;;28.36;31.55
30819;BME280;17546;42.674;23.284;2022-09-29T14:34:20;94027.66;;;28.65;30.84
30819;BME280;17546;42.674;23.284;2022-09-29T14:36:48;94044.59;;;28.91;31.29
30819;BME280;17546;42.674;23.284;2022-09-29T14:39:16;94056.28;;;28.97;32.05
30819;BME280;17546;42.674;23.284;2022-09-29T14:41:43;94069.50;;;28.90;33.35
30819;BME280;17546;42.674;23.284;2022-09-29T14:47:28;94085.91;;;28.76;36.40
30819;BME280;17546;42.674;23.284;2022-09-29T14:50:16;94079.84;;;28.83;38.27
30819;BME280;17546;42.674;23.284;2022-09-29T14:53:20;94079.91;;;28.56;39.11
30819;BME280;17546;42.674;23.284;2022-09-29T14:58:23;94076.72;;;28.63;40.80
30819;BME280;17546;42.674;23.284;2022-09-29T15:01:27;94069.25;;;28.56;40.38
30819;BME280;17546;42.674;23.284;2022-09-29T15:03:56;94060.81;;;28.44;41.13
30819;BME280;17546;42.674;23.284;2022-09-29T15:06:25;94063.00;;;28.46;41.87
30819;BME280;17546;42.674;23.284;2022-09-29T15:09:03;94064.16;;;28.41;42.77
30819;BME280;17546;42.674;23.284;2022-09-29T15:11:50;94062.88;;;28.44;42.93
30819;BME280;17546;42.674;23.284;2022-09-29T15:27:59;94060.19;;;28.18;44.28
30819;BME280;17546;42.674;23.284;2022-09-29T15:30:26;94060.69;;;28.15;43.97
30819;BME280;17546;42.674;23.284;2022-09-29T15:33:06;94068.06;;;28.06;43.69
30819;BME280;17546;42.674;23.284;2022-09-29T15:35:38;94071.56;;;28.18;43.62
30819;BME280;17546;42.674;23.284;2022-09-29T15:40:35;94091.88;;;27.85;43.51
30819;BME280;17546;42.674;23.284;2022-09-29T15:43:02;94100.25;;;27.69;43.42
30819;BME280;17546;42.674;23.284;2022-09-29T15:45:28;94093.63;;;27.53;43.44
30819;BME280;17546;42.674;23.284;2022-09-29T15:48:00;94085.56;;;27.61;43.57
30819;BME280;17546;42.674;23.284;2022-09-29T15:50:27;94095.78;;;27.66;43.67
30819;BME280;17546;42.674;23.284;2022-09-29T15:52:57;94087.75;;;27.62;44.37
30819;BME280;17546;42.674;23.284;2022-09-29T15:55:25;94075.66;;;27.62;44.81
30819;BME280;17546;42.674;23.284;2022-09-29T15:57:51;94084.84;;;27.74;44.89
30819;BME280;17546;42.674;23.284;2022-09-29T16:03:04;94090.66;;;27.76;43.94
30819;BME280;17546;42.674;23.284;2022-09-29T16:05:33;94093.38;;;27.60;44.05
30819;BME280;17546;42.674;23.284;2022-09-29T16:08:20;94102.41;;;27.57;44.77
30819;BME280;17546;42.674;23.284;2022-09-29T16:11:04;94098.88;;;27.07;45.14
30819;BME280;17546;42.674;23.284;2022-09-29T16:13:35;94102.50;;;27.08;44.54
30819;BME280;17546;42.674;23.284;2022-09-29T16:16:09;94105.09;;;27.04;44.53
30819;BME280;17546;42.674;23.284;2022-09-29T16:21:08;94098.22;;;26.83;44.16
30819;BME280;17546;42.674;23.284;2022-09-29T16:23:43;94132.31;;;26.95;44.79
30819;BME280;17546;42.674;23.284;2022-09-29T16:26:41;94141.72;;;26.86;44.28
30819;BME280;17546;42.674;23.284;2022-09-29T16:31:42;94158.88;;;26.05;46.17
30819;BME280;17546;42.674;23.284;2022-09-29T16:37:03;94204.03;;;24.91;49.48